Time;durP1;ratioP1;P1;durP2;ratioP2;P2;SDS_P1;SDS_P2;PMS_P1;PMS_P2;Temp;Humidity;BMP_temperature;BMP_pressure;BME280_temperature;BME280_humidity;BME280_pressure;Samples;Min_cycle;Max_cycle;Signal;HPM_P1;HPM_P2
2022/12/29 00:01:53;;;;;;;2.65;2.45;;;;;;;;;;4896400;29;20051;-92
2022/12/29 00:04:21;;;;;;;4.10;2.67;;;;;;;;;;4881281;29;20052;-93
2022/12/29 00:06:49;;;;;;;8.27;5.35;;;;;;;;;;4897348;29;20060;-92
2022/12/29 00:09:17;;;;;;;4.43;3.17;;;;;;;;;;4880209;29;20266;-92
2022/12/29 00:11:45;;;;;;;8.95;6.35;;;;;;;;;;4897529;29;20671;-92
2022/12/29 00:17:00;;;;;;;12.48;5.93;;;;;;;;;;4896914;29;20055;-93
2022/12/29 00:36:11;;;;;;;10.52;8.15;;;;;;;;;;4903393;29;20075;-92
2022/12/29 00:44:15;;;;;;;3.28;3.05;;;;;;;;;;4902826;29;20055;-92
2022/12/29 00:46:44;;;;;;;2.90;2.65;;;;;;;;;;4918728;29;20067;-92
2022/12/29 00:49:32;;;;;;;4.03;3.72;;;;;;;;;;4918959;29;20060;-93
2022/12/29 00:52:01;;;;;;;3.38;2.50;;;;;;;;;;4917997;28;20052;-93
2022/12/29 00:54:29;;;;;;;2.80;2.42;;;;;;;;;;4918953;29;20074;-93
2022/12/29 00:56:57;;;;;;;5.95;3.38;;;;;;;;;;4933141;29;20062;-92
2022/12/29 00:59:26;;;;;;;5.10;3.30;;;;;;;;;;4903131;29;20050;-93
2022/12/29 01:01:54;;;;;;;5.95;3.53;;;;;;;;;;4917653;29;20059;-93
2022/12/29 01:04:23;;;;;;;3.50;2.72;;;;;;;;;;4887588;29;20043;-93
2022/12/29 01:06:54;;;;;;;4.32;3.95;;;;;;;;;;4903621;29;20059;-91
2022/12/29 01:12:09;;;;;;;2.70;2.22;;;;;;;;;;4918453;29;20055;-93
2022/12/29 01:14:37;;;;;;;2.83;2.63;;;;;;;;;;4918977;29;20440;-92
2022/12/29 01:17:06;;;;;;;3.50;3.20;;;;;;;;;;4918319;29;20526;-95
2022/12/29 01:19:34;;;;;;;2.92;2.35;;;;;;;;;;4935480;29;20430;-93
2022/12/29 01:22:02;;;;;;;5.43;3.83;;;;;;;;;;4917251;29;20055;-93
2022/12/29 01:24:30;;;;;;;2.92;2.70;;;;;;;;;;4933141;29;20047;-93
2022/12/29 01:26:58;;;;;;;3.17;2.92;;;;;;;;;;4937132;29;20059;-93
2022/12/29 01:29:26;;;;;;;3.13;2.90;;;;;;;;;;4913340;29;20048;-92
2022/12/29 01:31:53;;;;;;;3.63;3.17;;;;;;;;;;4898693;29;20694;-93
2022/12/29 01:34:22;;;;;;;1.95;1.85;;;;;;;;;;4882772;29;20052;-93
2022/12/29 01:36:50;;;;;;;2.28;2.08;;;;;;;;;;4897896;29;20424;-92
2022/12/29 01:39:18;;;;;;;5.43;3.95;;;;;;;;;;4910635;29;20055;-91
2022/12/29 01:41:47;;;;;;;4.82;3.85;;;;;;;;;;4917771;29;20443;-92
2022/12/29 01:44:33;;;;;;;3.35;2.35;;;;;;;;;;4902168;29;20054;-93
2022/12/29 01:47:04;;;;;;;3.28;2.63;;;;;;;;;;4917978;29;20043;-94
2022/12/29 01:49:32;;;;;;;5.05;2.88;;;;;;;;;;4901499;29;20043;-92
2022/12/29 01:52:03;;;;;;;2.42;2.22;;;;;;;;;;4916855;29;20063;-92
2022/12/29 01:54:34;;;;;;;3.08;2.83;;;;;;;;;;4917830;29;20052;-93
2022/12/29 01:57:09;;;;;;;3.35;2.35;;;;;;;;;;4901456;29;20064;-92
2022/12/29 01:59:40;;;;;;;5.07;2.10;;;;;;;;;;4917408;29;20055;-93
2022/12/29 02:02:12;;;;;;;2.83;2.50;;;;;;;;;;4917509;29;20408;-93
2022/12/29 02:04:45;;;;;;;2.67;2.50;;;;;;;;;;4917715;29;20059;-93
2022/12/29 02:07:18;;;;;;;2.25;2.15;;;;;;;;;;4917074;29;20554;-93
2022/12/29 02:09:48;;;;;;;2.95;2.70;;;;;;;;;;4916621;29;20454;-92
2022/12/29 02:12:22;;;;;;;3.38;3.15;;;;;;;;;;4885810;29;20403;-91
2022/12/29 02:14:54;;;;;;;2.85;2.63;;;;;;;;;;4886733;29;20051;-91
2022/12/29 02:17:35;;;;;;;2.90;2.53;;;;;;;;;;4901310;29;20562;-92
2022/12/29 02:20:33;;;;;;;2.30;2.10;;;;;;;;;;4903085;28;20415;-93
2022/12/29 02:23:08;;;;;;;3.15;2.95;;;;;;;;;;4916930;29;20051;-91
2022/12/29 02:26:02;;;;;;;2.58;2.38;;;;;;;;;;4933020;29;20048;-93
2022/12/29 02:28:43;;;;;;;2.13;1.98;;;;;;;;;;4920097;29;20415;-92
2022/12/29 02:31:11;;;;;;;5.72;3.13;;;;;;;;;;4917812;29;20063;-92
2022/12/29 02:33:51;;;;;;;3.22;2.92;;;;;;;;;;4901287;29;20047;-91
2022/12/29 02:36:38;;;;;;;2.40;2.20;;;;;;;;;;4916427;29;20459;-90
2022/12/29 02:39:17;;;;;;;5.95;2.70;;;;;;;;;;4901157;29;20056;-89
2022/12/29 02:42:03;;;;;;;3.08;2.83;;;;;;;;;;4916929;29;20686;-92
2022/12/29 02:44:31;;;;;;;2.88;2.67;;;;;;;;;;4916644;29;20052;-92
2022/12/29 02:47:02;;;;;;;2.38;2.20;;;;;;;;;;4916399;29;20074;-92
2022/12/29 02:49:33;;;;;;;2.53;2.35;;;;;;;;;;4901019;29;20050;-95
2022/12/29 02:52:01;;;;;;;4.47;3.08;;;;;;;;;;4929687;29;20062;-91
2022/12/29 02:54:42;;;;;;;2.85;2.67;;;;;;;;;;4916525;29;20491;-93
2022/12/29 02:57:11;;;;;;;3.70;3.00;;;;;;;;;;4916515;29;20292;-92
2022/12/29 02:59:43;;;;;;;2.35;2.20;;;;;;;;;;4916194;29;20479;-91
2022/12/29 03:02:23;;;;;;;2.42;2.33;;;;;;;;;;4911770;29;20055;-93
2022/12/29 03:05:05;;;;;;;3.13;2.72;;;;;;;;;;4866633;29;20071;-91
2022/12/29 03:07:38;;;;;;;4.50;3.60;;;;;;;;;;4881695;29;20052;-89
2022/12/29 03:10:12;;;;;;;3.97;2.40;;;;;;;;;;4906395;29;20516;-90
2022/12/29 03:16:02;;;;;;;3.47;3.00;;;;;;;;;;4912407;29;20052;-91
2022/12/29 03:18:53;;;;;;;3.60;2.72;;;;;;;;;;4852533;29;20052;-93
2022/12/29 03:21:21;;;;;;;5.50;3.22;;;;;;;;;;4877594;29;20063;-94
2022/12/29 03:23:50;;;;;;;6.45;3.42;;;;;;;;;;4895427;29;20056;-92
2022/12/29 03:26:20;;;;;;;5.53;2.70;;;;;;;;;;4865365;29;20366;-92
2022/12/29 03:28:53;;;;;;;4.38;3.97;;;;;;;;;;4895543;29;20511;-92
2022/12/29 03:31:25;;;;;;;2.72;2.53;;;;;;;;;;4880791;29;20055;-94
2022/12/29 03:33:56;;;;;;;2.80;2.47;;;;;;;;;;4896054;29;20420;-92
2022/12/29 03:36:31;;;;;;;3.65;3.38;;;;;;;;;;4897814;29;20055;-93
2022/12/29 03:39:04;;;;;;;2.78;2.50;;;;;;;;;;4875294;29;20051;-91
2022/12/29 03:41:33;;;;;;;3.00;2.80;;;;;;;;;;4900368;29;20547;-93
2022/12/29 03:44:06;;;;;;;2.93;2.50;;;;;;;;;;4915915;29;20055;-93
2022/12/29 03:46:34;;;;;;;2.08;1.60;;;;;;;;;;4916311;29;20044;-92
2022/12/29 03:49:03;;;;;;;3.22;1.88;;;;;;;;;;4915488;29;20043;-91
2022/12/29 03:51:31;;;;;;;3.05;2.75;;;;;;;;;;4899405;29;20050;-90
2022/12/29 03:53:59;;;;;;;5.95;3.25;;;;;;;;;;4896018;29;20060;-91
2022/12/29 03:56:29;;;;;;;3.35;3.15;;;;;;;;;;4900741;29;20040;-91
2022/12/29 03:58:57;;;;;;;2.28;2.08;;;;;;;;;;4901699;29;20048;-91
2022/12/29 04:01:33;;;;;;;3.60;2.38;;;;;;;;;;4890026;29;20416;-91
2022/12/29 04:04:02;;;;;;;3.42;3.13;;;;;;;;;;4901219;29;20052;-93
2022/12/29 04:06:31;;;;;;;2.58;2.38;;;;;;;;;;4901322;29;20056;-93
2022/12/29 04:09:06;;;;;;;2.60;2.40;;;;;;;;;;4899531;29;20048;-91
2022/12/29 04:11:40;;;;;;;7.78;2.60;;;;;;;;;;4916681;29;20526;-92
2022/12/29 04:14:08;;;;;;;1.92;1.80;;;;;;;;;;4884893;29;20048;-91
2022/12/29 04:16:38;;;;;;;3.45;2.72;;;;;;;;;;4917691;29;20052;-91
2022/12/29 04:19:10;;;;;;;2.10;1.83;;;;;;;;;;4900222;29;20059;-92
2022/12/29 04:21:38;;;;;;;1.83;1.73;;;;;;;;;;4932352;29;20713;-91
2022/12/29 04:24:06;;;;;;;3.10;2.08;;;;;;;;;;4937079;28;20294;-91
2022/12/29 04:26:39;;;;;;;2.85;2.50;;;;;;;;;;4923306;29;20055;-91
2022/12/29 04:29:29;;;;;;;2.25;2.13;;;;;;;;;;4922441;29;20040;-91
2022/12/29 04:32:12;;;;;;;3.25;2.55;;;;;;;;;;4907372;29;20071;-91
2022/12/29 04:34:46;;;;;;;3.55;3.13;;;;;;;;;;4903364;29;20066;-91
2022/12/29 04:37:14;;;;;;;2.42;2.22;;;;;;;;;;4901192;29;20514;-92
2022/12/29 04:39:43;;;;;;;3.15;2.83;;;;;;;;;;4918336;29;20048;-91
2022/12/29 04:42:13;;;;;;;4.88;2.08;;;;;;;;;;4902355;29;20044;-90
2022/12/29 04:44:43;;;;;;;2.85;2.53;;;;;;;;;;4918273;29;20055;-91
2022/12/29 04:47:47;;;;;;;1.95;1.85;;;;;;;;;;4908760;29;20062;-89
2022/12/29 04:50:42;;;;;;;2.55;2.35;;;;;;;;;;4902077;29;20055;-89
2022/12/29 04:53:22;;;;;;;8.65;2.78;;;;;;;;;;4902217;29;20047;-90
2022/12/29 04:55:53;;;;;;;4.10;2.10;;;;;;;;;;4919017;29;20384;-89
2022/12/29 04:58:22;;;;;;;3.72;2.17;;;;;;;;;;4884393;29;20044;-89
2022/12/29 05:00:52;;;;;;;3.35;3.05;;;;;;;;;;4887845;29;20051;-89
2022/12/29 05:03:23;;;;;;;;;;;;;;;;;;4900262;29;20048;-89
2022/12/29 05:05:54;;;;;;;3.33;2.70;;;;;;;;;;4868117;29;20354;-90
2022/12/29 05:08:22;;;;;;;2.08;1.75;;;;;;;;;;4898459;29;20047;-91
2022/12/29 05:10:56;;;;;;;2.83;2.72;;;;;;;;;;4900337;29;20071;-89
2022/12/29 05:13:24;;;;;;;2.38;2.28;;;;;;;;;;4899541;29;20512;-89
2022/12/29 05:15:57;;;;;;;4.88;3.25;;;;;;;;;;4884319;29;20056;-90
2022/12/29 05:18:25;;;;;;;3.25;3.05;;;;;;;;;;4899606;29;20064;-90
2022/12/29 05:20:54;;;;;;;3.20;3.00;;;;;;;;;;4937481;28;20498;-90
2022/12/29 05:23:24;;;;;;;2.63;2.42;;;;;;;;;;4935961;29;20058;-89
2022/12/29 05:26:03;;;;;;;2.70;2.50;;;;;;;;;;4921470;29;20050;-89
2022/12/29 05:29:06;;;;;;;2.95;2.50;;;;;;;;;;4871849;29;20054;-89
2022/12/29 05:31:35;;;;;;;4.13;2.80;;;;;;;;;;4898444;29;20056;-90
2022/12/29 05:34:05;;;;;;;3.45;2.40;;;;;;;;;;4904227;29;20044;-90
2022/12/29 05:36:34;;;;;;;4.38;2.80;;;;;;;;;;4897374;29;20479;-89
2022/12/29 05:39:09;;;;;;;3.15;2.40;;;;;;;;;;4906419;29;20460;-89
2022/12/29 05:41:38;;;;;;;2.65;2.40;;;;;;;;;;4900461;29;20048;-90
2022/12/29 05:44:23;;;;;;;3.25;2.53;;;;;;;;;;4889083;29;20044;-90
2022/12/29 05:47:14;;;;;;;2.97;2.28;;;;;;;;;;4889164;29;20063;-90
2022/12/29 05:50:06;;;;;;;4.05;3.75;;;;;;;;;;4875538;29;20063;-90
2022/12/29 05:52:58;;;;;;;3.90;3.63;;;;;;;;;;4910022;29;20045;-89
2022/12/29 05:55:26;;;;;;;1.77;1.67;;;;;;;;;;4903762;29;20053;-90
2022/12/29 05:57:54;;;;;;;5.88;3.78;;;;;;;;;;4884624;29;20411;-89
2022/12/29 06:00:23;;;;;;;2.88;2.60;;;;;;;;;;4885184;29;20614;-89
2022/12/29 06:02:51;;;;;;;3.35;3.05;;;;;;;;;;4870235;29;20059;-90
2022/12/29 06:05:19;;;;;;;3.75;2.40;;;;;;;;;;4900790;29;20054;-89
2022/12/29 06:07:47;;;;;;;3.47;2.60;;;;;;;;;;4884475;29;20129;-89
2022/12/29 06:10:17;;;;;;;3.60;3.17;;;;;;;;;;4891406;29;20064;-90
2022/12/29 06:12:50;;;;;;;2.53;2.42;;;;;;;;;;4870082;29;20067;-90
2022/12/29 06:15:20;;;;;;;3.13;2.67;;;;;;;;;;4871224;29;20069;-90
2022/12/29 06:17:50;;;;;;;5.05;4.53;;;;;;;;;;4885628;29;20082;-90
2022/12/29 06:20:19;;;;;;;3.00;2.75;;;;;;;;;;4915590;29;20665;-89
2022/12/29 06:22:47;;;;;;;2.70;2.38;;;;;;;;;;4924648;29;20516;-89
2022/12/29 06:25:16;;;;;;;2.80;2.60;;;;;;;;;;4924368;29;20052;-89
2022/12/29 06:27:46;;;;;;;2.22;2.10;;;;;;;;;;4893650;29;20059;-91
2022/12/29 06:30:16;;;;;;;2.50;2.22;;;;;;;;;;4924037;29;20048;-90
2022/12/29 06:32:45;;;;;;;3.85;2.90;;;;;;;;;;4939301;29;20047;-90
2022/12/29 06:35:15;;;;;;;5.63;2.58;;;;;;;;;;4923945;29;20060;-90
2022/12/29 06:37:49;;;;;;;2.85;2.45;;;;;;;;;;4922222;29;20390;-90
2022/12/29 06:40:18;;;;;;;2.80;2.53;;;;;;;;;;4908078;29;20431;-90
2022/12/29 06:43:02;;;;;;;5.07;2.58;;;;;;;;;;4941144;29;20525;-90
2022/12/29 06:45:50;;;;;;;4.03;3.40;;;;;;;;;;4891402;29;20047;-91
2022/12/29 06:48:18;;;;;;;3.22;2.15;;;;;;;;;;4931965;29;20062;-89
2022/12/29 06:50:46;;;;;;;3.15;2.85;;;;;;;;;;4889622;29;20063;-90
2022/12/29 06:53:14;;;;;;;8.38;2.67;;;;;;;;;;4905283;29;20052;-89
2022/12/29 06:55:44;;;;;;;3.88;2.53;;;;;;;;;;4921507;29;20071;-90
2022/12/29 06:58:13;;;;;;;2.95;2.47;;;;;;;;;;4921198;29;20055;-91
2022/12/29 07:00:41;;;;;;;2.30;2.20;;;;;;;;;;4926306;29;20051;-90
2022/12/29 07:03:09;;;;;;;8.57;1.90;;;;;;;;;;4941180;29;20044;-91
2022/12/29 07:05:37;;;;;;;2.97;2.78;;;;;;;;;;4908099;29;20040;-91
2022/12/29 07:08:05;;;;;;;3.45;2.67;;;;;;;;;;4906658;29;20459;-91
2022/12/29 07:10:33;;;;;;;5.78;2.20;;;;;;;;;;4908846;29;20055;-90
2022/12/29 07:13:01;;;;;;;4.35;2.17;;;;;;;;;;4924437;29;20051;-91
2022/12/29 07:15:31;;;;;;;2.30;2.10;;;;;;;;;;4925033;29;20051;-91
2022/12/29 07:18:02;;;;;;;2.35;2.15;;;;;;;;;;4940498;29;20047;-90
2022/12/29 07:20:33;;;;;;;2.45;2.25;;;;;;;;;;4913652;29;20055;-90
2022/12/29 07:23:00;;;;;;;4.55;3.95;;;;;;;;;;4924158;29;20408;-92
2022/12/29 07:25:29;;;;;;;4.28;2.95;;;;;;;;;;4955386;29;20051;-90
2022/12/29 07:27:57;;;;;;;2.60;2.35;;;;;;;;;;4941952;28;20048;-93
2022/12/29 07:30:25;;;;;;;2.00;1.85;;;;;;;;;;4943344;29;20062;-90
2022/12/29 07:32:54;;;;;;;4.30;3.20;;;;;;;;;;4925234;29;20039;-89
2022/12/29 07:35:22;;;;;;;3.03;2.83;;;;;;;;;;4911052;29;20060;-91
2022/12/29 07:37:50;;;;;;;1.95;1.85;;;;;;;;;;4909677;29;20066;-91
2022/12/29 07:40:18;;;;;;;2.22;2.05;;;;;;;;;;4927422;29;20223;-92
2022/12/29 07:42:46;;;;;;;4.68;2.55;;;;;;;;;;4927960;29;20051;-90
2022/12/29 07:45:16;;;;;;;2.40;2.25;;;;;;;;;;4912501;29;20052;-90
2022/12/29 07:47:49;;;;;;;3.33;3.08;;;;;;;;;;4928287;29;20063;-90
2022/12/29 07:50:17;;;;;;;2.70;2.50;;;;;;;;;;4928076;29;20056;-91
2022/12/29 07:52:46;;;;;;;2.50;2.30;;;;;;;;;;4943373;29;20063;-90
2022/12/29 07:55:17;;;;;;;2.88;2.67;;;;;;;;;;4945734;29;20056;-92
2022/12/29 07:57:45;;;;;;;3.05;2.72;;;;;;;;;;4926824;29;20052;-90
2022/12/29 08:00:15;;;;;;;2.90;2.03;;;;;;;;;;4925023;29;20052;-91
2022/12/29 08:02:42;;;;;;;3.58;2.70;;;;;;;;;;4903707;29;20056;-90
2022/12/29 08:05:11;;;;;;;2.08;1.73;;;;;;;;;;4908072;29;20044;-91
2022/12/29 08:07:39;;;;;;;3.35;2.15;;;;;;;;;;4907884;29;20056;-92
2022/12/29 08:10:10;;;;;;;2.10;1.70;;;;;;;;;;4923130;29;20559;-90
2022/12/29 08:12:39;;;;;;;3.75;2.53;;;;;;;;;;4908542;29;20047;-91
2022/12/29 08:15:08;;;;;;;3.17;2.88;;;;;;;;;;4923557;29;20063;-91
2022/12/29 08:17:36;;;;;;;2.75;2.25;;;;;;;;;;4882340;29;20068;-91
2022/12/29 08:20:05;;;;;;;2.53;2.33;;;;;;;;;;4906813;29;20484;-89
2022/12/29 08:22:33;;;;;;;2.38;2.17;;;;;;;;;;4903835;29;20063;-90
2022/12/29 08:25:01;;;;;;;2.67;2.47;;;;;;;;;;4902474;29;20052;-90
2022/12/29 08:27:30;;;;;;;2.75;2.50;;;;;;;;;;4886147;29;20195;-90
2022/12/29 08:30:00;;;;;;;4.03;2.38;;;;;;;;;;4884766;29;20415;-90
2022/12/29 08:32:28;;;;;;;3.35;2.05;;;;;;;;;;4898178;29;20047;-88
2022/12/29 08:35:03;;;;;;;3.33;2.60;;;;;;;;;;4898765;29;20076;-91
2022/12/29 08:37:32;;;;;;;2.05;1.92;;;;;;;;;;4880541;29;20389;-92
2022/12/29 08:40:03;;;;;;;3.15;2.80;;;;;;;;;;4914305;29;20056;-90
2022/12/29 08:42:32;;;;;;;3.47;1.80;;;;;;;;;;4907971;29;20058;-90
2022/12/29 08:45:00;;;;;;;2.92;2.67;;;;;;;;;;4903953;29;20055;-92
2022/12/29 08:47:31;;;;;;;2.00;1.90;;;;;;;;;;4924057;29;20047;-91
2022/12/29 08:50:00;;;;;;;2.05;1.95;;;;;;;;;;4922343;29;20074;-90
2022/12/29 08:52:28;;;;;;;5.38;2.50;;;;;;;;;;4905096;29;20039;-92
2022/12/29 08:54:56;;;;;;;2.42;1.92;;;;;;;;;;4939253;29;20507;-90
2022/12/29 08:57:24;;;;;;;3.85;3.55;;;;;;;;;;4921164;29;20048;-90
2022/12/29 09:00:15;;;;;;;2.55;2.28;;;;;;;;;;4926409;29;21099;-89
2022/12/29 09:02:43;;;;;;;2.10;1.90;;;;;;;;;;4897608;29;20052;-89
2022/12/29 09:05:12;;;;;;;2.28;2.08;;;;;;;;;;4920477;29;20041;-88
2022/12/29 09:07:40;;;;;;;2.90;2.67;;;;;;;;;;4936362;29;20070;-89
2022/12/29 09:10:08;;;;;;;6.55;4.65;;;;;;;;;;4934342;29;20047;-92
2022/12/29 09:12:36;;;;;;;6.80;2.42;;;;;;;;;;4934579;29;20048;-90
2022/12/29 09:15:05;;;;;;;2.58;2.38;;;;;;;;;;4918630;29;20059;-90
2022/12/29 09:17:45;;;;;;;3.60;2.58;;;;;;;;;;4917022;29;20297;-90
2022/12/29 09:20:15;;;;;;;4.97;3.13;;;;;;;;;;4920189;28;20423;-91
2022/12/29 09:22:43;;;;;;;2.72;2.33;;;;;;;;;;4933973;29;20066;-90
2022/12/29 09:25:11;;;;;;;3.00;2.60;;;;;;;;;;4952813;29;20055;-90
2022/12/29 09:27:40;;;;;;;5.03;2.88;;;;;;;;;;4953537;29;20086;-89
2022/12/29 09:30:09;;;;;;;3.05;2.85;;;;;;;;;;4903826;29;20052;-89
2022/12/29 09:32:41;;;;;;;3.17;2.88;;;;;;;;;;4916135;29;20040;-91
2022/12/29 09:35:13;;;;;;;2.60;2.38;;;;;;;;;;4917490;29;20051;-88
2022/12/29 09:37:42;;;;;;;2.42;2.22;;;;;;;;;;4915551;29;20047;-91
2022/12/29 09:40:22;;;;;;;2.90;1.88;;;;;;;;;;4916114;29;20063;-91
2022/12/29 09:42:58;;;;;;;2.95;2.53;;;;;;;;;;4918305;29;20055;-89
2022/12/29 09:45:31;;;;;;;3.88;3.45;;;;;;;;;;4916838;29;20092;-90
2022/12/29 09:47:59;;;;;;;2.60;2.33;;;;;;;;;;4884969;29;20064;-87
2022/12/29 09:50:37;;;;;;;5.63;2.10;;;;;;;;;;4916059;29;20047;-88
2022/12/29 09:53:05;;;;;;;3.25;2.95;;;;;;;;;;4897678;29;20052;-89
2022/12/29 09:55:37;;;;;;;5.30;4.47;;;;;;;;;;4916599;29;20058;-92
2022/12/29 09:58:10;;;;;;;6.35;2.53;;;;;;;;;;4916156;29;20054;-91
2022/12/29 10:00:49;;;;;;;3.20;2.25;;;;;;;;;;4915338;29;20423;-87
2022/12/29 10:03:24;;;;;;;4.57;3.28;;;;;;;;;;4920435;29;20786;-89
2022/12/29 10:06:14;;;;;;;3.10;2.80;;;;;;;;;;4897374;29;20048;-89
2022/12/29 10:08:42;;;;;;;2.97;2.67;;;;;;;;;;4886558;29;20055;-83
2022/12/29 10:11:21;;;;;;;2.00;1.90;;;;;;;;;;4913169;29;20059;-85
2022/12/29 10:13:53;;;;;;;3.03;2.60;;;;;;;;;;4897966;29;20302;-87
2022/12/29 10:16:33;;;;;;;4.03;2.97;;;;;;;;;;4913689;29;20284;-91
2022/12/29 10:19:06;;;;;;;3.47;3.17;;;;;;;;;;4893382;29;20304;-87
2022/12/29 10:21:43;;;;;;;1.77;1.67;;;;;;;;;;4912885;29;20692;-86
2022/12/29 10:24:13;;;;;;;2.67;2.45;;;;;;;;;;4935570;28;20060;-84
2022/12/29 10:26:42;;;;;;;3.28;2.53;;;;;;;;;;4908870;29;20052;-86
2022/12/29 10:29:33;;;;;;;3.63;2.13;;;;;;;;;;4913555;29;20052;-87
2022/12/29 10:32:04;;;;;;;5.10;4.68;;;;;;;;;;4902833;28;20063;-88
2022/12/29 10:34:33;;;;;;;;;;;;;;;;;;4912100;29;20455;-87
2022/12/29 10:37:03;;;;;;;2.33;2.22;;;;;;;;;;4913784;29;19927;-83
2022/12/29 10:39:34;;;;;;;3.05;2.53;;;;;;;;;;4932513;29;20048;-87
2022/12/29 10:42:02;;;;;;;;;;;;;;;;;;4931360;29;20059;-86
2022/12/29 10:44:31;;;;;;;3.58;1.98;;;;;;;;;;4928274;29;19931;-86
2022/12/29 10:47:04;;;;;;;3.45;3.15;;;;;;;;;;4910493;29;20051;-86
2022/12/29 10:49:36;;;;;;;3.35;2.78;;;;;;;;;;4894278;29;20044;-89
2022/12/29 10:52:04;;;;;;;3.85;2.30;;;;;;;;;;4928463;29;20055;-88
2022/12/29 10:54:39;;;;;;;3.70;1.77;;;;;;;;;;4932800;29;20641;-91
2022/12/29 10:57:12;;;;;;;3.22;2.80;;;;;;;;;;4907412;29;20322;-86
2022/12/29 10:59:41;;;;;;;4.20;2.28;;;;;;;;;;4914115;29;20059;-85
2022/12/29 11:02:09;;;;;;;1.98;1.85;;;;;;;;;;4922146;29;20047;-87
2022/12/29 11:04:58;;;;;;;2.90;2.22;;;;;;;;;;4930469;29;20040;-87
2022/12/29 11:07:26;;;;;;;3.22;2.38;;;;;;;;;;4924603;29;20350;-88
2022/12/29 11:09:55;;;;;;;2.58;2.38;;;;;;;;;;4916783;29;20059;-89
2022/12/29 11:12:30;;;;;;;1.98;1.80;;;;;;;;;;4896462;29;20427;-88
2022/12/29 11:15:03;;;;;;;2.15;1.95;;;;;;;;;;4911975;29;20067;-88
2022/12/29 11:17:43;;;;;;;4.20;2.40;;;;;;;;;;4881479;29;20044;-94
2022/12/29 11:20:29;;;;;;;2.10;1.90;;;;;;;;;;4895804;29;20056;-90
2022/12/29 11:22:58;;;;;;;2.08;1.88;;;;;;;;;;4878550;29;20335;-89
2022/12/29 11:25:26;;;;;;;1.90;1.70;;;;;;;;;;4879423;29;20044;-90
2022/12/29 11:28:01;;;;;;;2.28;1.67;;;;;;;;;;4879832;29;20078;-89
2022/12/29 11:30:31;;;;;;;2.42;2.22;;;;;;;;;;4894065;29;20048;-90
2022/12/29 11:33:03;;;;;;;4.20;2.38;;;;;;;;;;4912645;29;20054;-90
2022/12/29 11:35:34;;;;;;;3.50;2.58;;;;;;;;;;4894619;29;20055;-89
2022/12/29 11:38:02;;;;;;;1.90;1.77;;;;;;;;;;4928999;29;20055;-89
2022/12/29 11:40:31;;;;;;;4.22;2.30;;;;;;;;;;4912883;29;20051;-89
2022/12/29 11:43:02;;;;;;;2.17;2.05;;;;;;;;;;4913762;29;20055;-89
2022/12/29 11:45:32;;;;;;;2.13;2.03;;;;;;;;;;4883573;29;20052;-91
2022/12/29 11:48:07;;;;;;;3.85;2.13;;;;;;;;;;4930915;29;20051;-89
2022/12/29 11:50:38;;;;;;;2.65;1.30;;;;;;;;;;4915425;29;20776;-91
2022/12/29 11:53:06;;;;;;;2.25;1.95;;;;;;;;;;4912751;29;20062;-90
2022/12/29 11:55:34;;;;;;;2.05;1.40;;;;;;;;;;4911842;29;20043;-90
2022/12/29 11:58:04;;;;;;;3.85;2.53;;;;;;;;;;4895122;29;20052;-91
2022/12/29 12:00:35;;;;;;;2.78;2.50;;;;;;;;;;4879838;29;20157;-89
2022/12/29 12:03:03;;;;;;;2.67;2.28;;;;;;;;;;4886815;29;20056;-90
2022/12/29 12:05:38;;;;;;;2.60;2.20;;;;;;;;;;4882686;29;20306;-89
2022/12/29 12:08:12;;;;;;;2.92;2.63;;;;;;;;;;4905629;29;20063;-89
2022/12/29 12:10:55;;;;;;;3.92;3.60;;;;;;;;;;4906964;29;20063;-86
2022/12/29 12:13:31;;;;;;;2.33;1.80;;;;;;;;;;4928567;29;20044;-87
2022/12/29 12:16:23;;;;;;;1.90;1.80;;;;;;;;;;4900841;29;20501;-87
2022/12/29 12:18:55;;;;;;;2.63;1.88;;;;;;;;;;4911736;29;20055;-86
2022/12/29 12:21:23;;;;;;;2.10;2.00;;;;;;;;;;4915776;29;20063;-86
2022/12/29 12:23:51;;;;;;;3.25;2.08;;;;;;;;;;4907708;29;20052;-87
2022/12/29 12:26:22;;;;;;;9.73;2.05;;;;;;;;;;4918738;29;20052;-86
2022/12/29 12:28:53;;;;;;;2.13;1.92;;;;;;;;;;4882297;29;20060;-86
2022/12/29 12:31:48;;;;;;;3.38;2.17;;;;;;;;;;4929038;29;20059;-85
2022/12/29 12:34:20;;;;;;;3.88;2.08;;;;;;;;;;4931484;29;20062;-88
2022/12/29 12:36:48;;;;;;;6.75;2.20;;;;;;;;;;4933729;29;20043;-83
2022/12/29 12:39:27;;;;;;;2.22;1.98;;;;;;;;;;4915796;29;20069;-84
2022/12/29 12:42:01;;;;;;;2.28;1.90;;;;;;;;;;4916228;29;20059;-84
2022/12/29 12:44:29;;;;;;;2.13;1.92;;;;;;;;;;4939856;28;20055;-84
2022/12/29 12:47:11;;;;;;;1.77;1.58;;;;;;;;;;4928803;29;20065;-84
2022/12/29 12:49:58;;;;;;;3.30;1.95;;;;;;;;;;4917491;29;20047;-84
2022/12/29 12:52:45;;;;;;;2.33;1.60;;;;;;;;;;4914891;29;20043;-83
2022/12/29 12:55:19;;;;;;;4.55;2.13;;;;;;;;;;4931670;29;20067;-83
2022/12/29 12:58:12;;;;;;;2.72;1.98;;;;;;;;;;4901015;29;20385;-85
2022/12/29 13:01:01;;;;;;;3.38;2.33;;;;;;;;;;4916723;29;20051;-84
2022/12/29 13:03:37;;;;;;;2.30;2.10;;;;;;;;;;4933300;29;20067;-84
2022/12/29 13:06:16;;;;;;;3.80;2.13;;;;;;;;;;4932325;29;20051;-83
2022/12/29 13:08:49;;;;;;;4.78;2.17;;;;;;;;;;4930437;29;20043;-82
2022/12/29 13:11:25;;;;;;;2.15;1.73;;;;;;;;;;4929703;29;20048;-82
2022/12/29 13:13:59;;;;;;;2.10;1.73;;;;;;;;;;4914152;29;20047;-82
2022/12/29 13:16:35;;;;;;;3.28;2.58;;;;;;;;;;4933500;29;20039;-82
2022/12/29 13:19:09;;;;;;;2.55;2.35;;;;;;;;;;4932227;29;20056;-82
2022/12/29 13:21:49;;;;;;;2.35;1.85;;;;;;;;;;4929984;29;20513;-82
2022/12/29 13:25:01;;;;;;;2.22;2.08;;;;;;;;;;4949755;28;20050;-83
2022/12/29 13:27:35;;;;;;;1.77;1.67;;;;;;;;;;4861857;29;20051;-83
2022/12/29 13:30:04;;;;;;;2.35;2.15;;;;;;;;;;4915016;29;20292;-83
2022/12/29 13:32:51;;;;;;;2.20;2.00;;;;;;;;;;4915584;29;20718;-82
2022/12/29 13:35:33;;;;;;;4.40;2.58;;;;;;;;;;4914220;29;20052;-84
2022/12/29 13:38:04;;;;;;;3.15;2.55;;;;;;;;;;4882021;29;20044;-84
2022/12/29 13:40:39;;;;;;;3.08;2.28;;;;;;;;;;4908714;29;20047;-84
2022/12/29 13:43:07;;;;;;;2.00;1.83;;;;;;;;;;4916104;29;20059;-84
2022/12/29 13:45:35;;;;;;;1.70;1.60;;;;;;;;;;4915234;29;20045;-84
2022/12/29 13:48:12;;;;;;;3.67;2.15;;;;;;;;;;4899090;29;20067;-80
2022/12/29 13:51:00;;;;;;;3.25;2.53;;;;;;;;;;5073911;27;1445004;-86
2022/12/29 13:53:35;;;;;;;5.75;2.38;;;;;;;;;;5091038;27;20040;-86
2022/12/29 13:56:20;;;;;;;5.50;2.75;;;;;;;;;;5067534;28;20138;-86
2022/12/29 13:58:54;;;;;;;2.60;2.40;;;;;;;;;;5067961;28;20053;-86
2022/12/29 14:01:32;;;;;;;3.72;2.45;;;;;;;;;;5084099;28;20063;-86
2022/12/29 14:04:02;;;;;;;4.57;2.75;;;;;;;;;;5048177;28;20448;-86
2022/12/29 14:06:31;;;;;;;3.03;2.15;;;;;;;;;;5044634;28;20052;-86
2022/12/29 14:09:06;;;;;;;3.20;2.40;;;;;;;;;;5033633;28;20038;-86
2022/12/29 14:11:36;;;;;;;4.70;3.58;;;;;;;;;;5025318;28;20452;-86
2022/12/29 14:14:18;;;;;;;3.03;2.75;;;;;;;;;;5041649;28;20037;-86
2022/12/29 14:16:46;;;;;;;2.40;2.20;;;;;;;;;;5044198;28;20661;-86
2022/12/29 14:19:17;;;;;;;3.85;3.55;;;;;;;;;;5043605;28;20060;-86
2022/12/29 14:21:56;;;;;;;3.10;2.22;;;;;;;;;;5063839;28;20049;-86
2022/12/29 14:24:27;;;;;;;1.90;1.80;;;;;;;;;;5064742;28;20064;-86
2022/12/29 14:26:57;;;;;;;3.65;3.35;;;;;;;;;;5065693;28;20695;-86
2022/12/29 14:29:25;;;;;;;3.65;1.83;;;;;;;;;;5056648;28;20037;-86
2022/12/29 14:31:53;;;;;;;3.10;2.80;;;;;;;;;;5044741;28;20512;-84
2022/12/29 14:34:21;;;;;;;2.60;2.22;;;;;;;;;;5062449;28;20044;-85
2022/12/29 14:36:53;;;;;;;2.40;2.25;;;;;;;;;;5063381;28;20040;-86
2022/12/29 14:39:31;;;;;;;3.20;2.13;;;;;;;;;;5063211;28;20052;-85
2022/12/29 14:42:04;;;;;;;2.45;2.25;;;;;;;;;;5076083;28;20052;-86
2022/12/29 14:44:33;;;;;;;3.53;3.22;;;;;;;;;;5083338;28;20047;-86
2022/12/29 14:47:06;;;;;;;2.67;2.33;;;;;;;;;;5082769;28;20056;-86
2022/12/29 14:49:41;;;;;;;3.92;2.58;;;;;;;;;;5083221;28;20052;-86
2022/12/29 14:52:15;;;;;;;8.30;2.28;;;;;;;;;;5064964;28;20048;-86
2022/12/29 14:54:49;;;;;;;3.40;3.03;;;;;;;;;;5084902;28;20067;-85
2022/12/29 14:57:26;;;;;;;2.70;2.55;;;;;;;;;;5084273;28;20056;-86
2022/12/29 14:59:57;;;;;;;2.70;2.22;;;;;;;;;;5085194;28;20063;-86
2022/12/29 15:02:26;;;;;;;4.63;1.95;;;;;;;;;;5046536;28;20044;-86
2022/12/29 15:04:59;;;;;;;1.88;1.75;;;;;;;;;;5051248;28;20208;-86
2022/12/29 15:07:28;;;;;;;3.00;2.17;;;;;;;;;;5048663;28;20079;-86
2022/12/29 15:10:06;;;;;;;2.40;2.20;;;;;;;;;;5050280;28;20484;-86
2022/12/29 15:12:37;;;;;;;2.38;2.13;;;;;;;;;;5048747;28;20041;-86
2022/12/29 15:15:19;;;;;;;3.78;2.03;;;;;;;;;;5042908;28;20072;-86
2022/12/29 15:17:47;;;;;;;;;;;;;;;;;;5041853;28;20052;-85
2022/12/29 15:20:21;;;;;;;2.45;2.25;;;;;;;;;;5025897;28;19929;-85
2022/12/29 15:22:50;;;;;;;5.47;3.05;;;;;;;;;;5044095;28;20041;-86
2022/12/29 15:25:19;;;;;;;2.38;2.17;;;;;;;;;;5031474;28;20416;-86
2022/12/29 15:27:52;;;;;;;2.70;2.30;;;;;;;;;;5050630;28;20053;-86
2022/12/29 15:30:20;;;;;;;2.70;2.50;;;;;;;;;;5015447;28;20049;-86
2022/12/29 15:32:49;;;;;;;1.92;1.80;;;;;;;;;;5043883;28;20045;-85
2022/12/29 15:35:25;;;;;;;2.72;2.20;;;;;;;;;;5040256;28;20079;-84
2022/12/29 15:37:56;;;;;;;4.40;2.35;;;;;;;;;;5014607;28;20045;-86
2022/12/29 15:40:25;;;;;;;4.45;2.33;;;;;;;;;;5029549;28;20438;-86
2022/12/29 15:42:59;;;;;;;13.90;3.15;;;;;;;;;;5012477;28;20142;-86
2022/12/29 15:45:30;;;;;;;2.33;2.13;;;;;;;;;;5012366;28;20056;-86
2022/12/29 15:47:59;;;;;;;2.75;2.50;;;;;;;;;;5011782;28;20049;-87